Time;durP1;ratioP1;P1;durP2;ratioP2;P2;SDS_P1;SDS_P2;PMS_P1;PMS_P2;Temp;Humidity;BMP_temperature;BMP_pressure;BME280_temperature;BME280_humidity;BME280_pressure;Samples;Min_cycle;Max_cycle;Signal;HPM_P1;HPM_P2
2021/08/02 00:00:17;;;;;;;;;;;13.30;99.90;;;;;;5045930;28;20033;-71
2021/08/02 00:02:49;;;;;;;4.70;1.08;;;13.30;99.90;;;;;;5046464;28;19910;-71
2021/08/02 00:05:18;;;;;;;7.07;0.65;;;13.30;99.90;;;;;;5046344;28;20040;-74
2021/08/02 00:07:50;;;;;;;0.98;0.50;;;13.30;99.90;;;;;;5044936;28;20471;-74
2021/08/02 00:10:16;;;;;;;6.32;1.50;;;13.30;99.90;;;;;;5045149;28;20028;-72
2021/08/02 00:12:49;;;;;;;1.85;0.98;;;13.30;99.90;;;;;;5045641;28;20049;-72
2021/08/02 00:15:16;;;;;;;2.60;0.93;;;13.30;99.90;;;;;;5064085;28;20057;-74
2021/08/02 00:17:44;;;;;;;1.85;1.05;;;13.30;99.90;;;;;;5064557;28;20085;-73
2021/08/02 00:20:13;;;;;;;2.13;1.15;;;13.30;99.90;;;;;;5064981;28;20021;-74
2021/08/02 00:22:39;;;;;;;2.05;1.00;;;13.30;99.90;;;;;;5066074;28;20025;-71
2021/08/02 00:25:06;;;;;;;7.47;1.48;;;13.20;99.90;;;;;;5065847;28;20063;-71
2021/08/02 00:27:32;;;;;;;4.15;1.02;;;13.30;99.90;;;;;;5065990;28;20025;-72
2021/08/02 00:29:59;;;;;;;1.55;0.77;;;13.30;99.90;;;;;;5064356;28;20527;-72
2021/08/02 00:32:25;;;;;;;0.68;0.45;;;13.30;99.90;;;;;;5066154;28;20032;-72
2021/08/02 00:34:51;;;;;;;1.55;0.70;;;13.40;99.90;;;;;;5066044;28;20029;-71
2021/08/02 00:37:28;;;;;;;4.20;0.93;;;13.30;99.90;;;;;;5066018;28;20025;-71
2021/08/02 00:40:00;;;;;;;1.60;0.63;;;13.30;99.90;;;;;;5065912;28;20070;-72
2021/08/02 00:43:03;;;;;;;3.50;0.70;;;13.20;99.90;;;;;;5064430;28;20025;-73
2021/08/02 00:45:31;;;;;;;5.78;0.73;;;13.20;99.90;;;;;;5065291;28;20021;-71
2021/08/02 00:48:06;;;;;;;3.80;0.95;;;13.20;99.90;;;;;;5064177;28;20029;-77
2021/08/02 00:50:38;;;;;;;0.95;0.40;;;13.20;99.90;;;;;;5065566;28;20074;-72
2021/08/02 00:53:19;;;;;;;5.20;0.80;;;13.10;99.90;;;;;;5065576;28;20032;-72
2021/08/02 00:55:51;;;;;;;2.58;0.98;;;13.10;99.90;;;;;;5065639;28;20068;-74
2021/08/02 00:58:19;;;;;;;0.80;0.60;;;13.10;99.90;;;;;;5065814;28;20029;-71
2021/08/02 01:00:47;;;;;;;1.67;1.13;;;13.20;99.90;;;;;;5054651;28;20033;-74
2021/08/02 01:03:14;;;;;;;1.35;0.77;;;13.10;99.90;;;;;;5044108;28;20022;-72
2021/08/02 01:05:41;;;;;;;1.52;1.00;;;13.10;99.90;;;;;;5043762;28;20422;-73
2021/08/02 01:08:15;;;;;;;1.35;0.70;;;13.20;99.90;;;;;;5045297;28;20113;-71
2021/08/02 01:10:53;;;;;;;3.28;1.83;;;13.20;99.90;;;;;;5045038;28;20024;-71
2021/08/02 01:13:21;;;;;;;1.73;0.95;;;13.20;99.90;;;;;;5045108;28;20060;-74
2021/08/02 01:15:49;;;;;;;2.95;1.00;;;13.20;99.90;;;;;;5043626;28;20571;-71
2021/08/02 01:18:20;;;;;;;4.25;1.13;;;13.20;99.90;;;;;;5044905;28;20248;-72
2021/08/02 01:20:51;;;;;;;7.75;0.68;;;13.20;99.90;;;;;;5045266;28;20034;-74
2021/08/02 01:23:18;;;;;;;4.57;1.10;;;13.20;99.90;;;;;;5043769;28;21039;-73
2021/08/02 01:25:44;;;;;;;1.50;0.60;;;13.20;99.90;;;;;;5043145;28;20063;-72
2021/08/02 01:28:15;;;;;;;0.93;0.63;;;13.30;99.90;;;;;;5044956;28;20029;-75
2021/08/02 01:30:46;;;;;;;3.42;0.90;;;13.20;99.90;;;;;;5044836;28;20053;-72
2021/08/02 01:33:15;;;;;;;5.10;1.00;;;13.30;99.90;;;;;;5044534;28;20052;-75
2021/08/02 01:35:42;;;;;;;1.25;0.90;;;13.30;99.90;;;;;;5044767;28;20037;-75
2021/08/02 01:38:08;;;;;;;5.85;0.73;;;13.20;99.90;;;;;;5044631;28;20025;-70
2021/08/02 01:40:34;;;;;;;3.30;1.27;;;13.20;99.90;;;;;;5044778;28;20032;-71
2021/08/02 01:43:05;;;;;;;1.52;0.98;;;13.20;99.90;;;;;;5043559;28;20022;-75
2021/08/02 01:45:48;;;;;;;12.02;1.48;;;13.20;99.90;;;;;;5043019;28;20026;-75
2021/08/02 01:48:24;;;;;;;2.08;1.13;;;13.20;99.90;;;;;;5043146;28;20513;-71
2021/08/02 01:51:01;;;;;;;1.23;0.82;;;13.20;99.90;;;;;;5045198;28;20068;-73
2021/08/02 01:53:31;;;;;;;2.53;0.73;;;13.20;99.90;;;;;;5043345;28;20029;-73
2021/08/02 01:56:19;;;;;;;2.55;0.93;;;13.20;99.90;;;;;;5044690;28;20025;-76
2021/08/02 01:58:57;;;;;;;4.50;1.23;;;13.30;99.90;;;;;;5043079;28;20033;-72
2021/08/02 02:01:25;;;;;;;6.38;1.38;;;13.20;99.90;;;;;;5044586;28;20026;-72
2021/08/02 02:03:54;;;;;;;2.05;1.00;;;13.30;99.90;;;;;;5044580;28;20056;-74
2021/08/02 02:06:27;;;;;;;7.35;0.98;;;13.30;99.90;;;;;;5044242;28;20053;-76
2021/08/02 02:09:00;;;;;;;1.63;1.13;;;13.30;99.90;;;;;;5044855;28;20030;-73
2021/08/02 02:11:27;;;;;;;1.65;1.27;;;13.30;99.90;;;;;;5044973;28;20037;-73
2021/08/02 02:13:57;;;;;;;1.63;1.00;;;13.30;99.90;;;;;;5047263;28;20025;-72
2021/08/02 02:16:25;;;;;;;9.57;1.13;;;13.30;99.90;;;;;;5048635;28;20056;-71
2021/08/02 02:18:55;;;;;;;1.65;1.00;;;13.30;99.90;;;;;;5048421;28;20021;-73
2021/08/02 02:21:32;;;;;;;6.78;0.73;;;13.30;99.90;;;;;;5048394;28;20045;-75
2021/08/02 02:23:58;;;;;;;1.83;1.00;;;13.30;99.90;;;;;;5048682;28;20025;-75
2021/08/02 02:26:27;;;;;;;4.03;1.25;;;13.30;99.90;;;;;;5048353;28;20063;-71
2021/08/02 02:28:55;;;;;;;2.33;1.33;;;13.30;99.90;;;;;;5047026;28;20029;-72
2021/08/02 02:31:24;;;;;;;3.00;1.35;;;13.30;99.90;;;;;;5047287;28;20026;-72
2021/08/02 02:33:51;;;;;;;1.50;1.05;;;13.30;99.90;;;;;;5048437;28;20052;-71
2021/08/02 02:36:18;;;;;;;8.15;1.90;;;13.20;99.90;;;;;;5046855;28;20490;-71
2021/08/02 02:38:46;;;;;;;4.43;1.02;;;13.20;99.90;;;;;;5048363;28;20033;-71
2021/08/02 02:41:23;;;;;;;4.15;1.38;;;13.20;99.90;;;;;;5048077;28;20072;-72
2021/08/02 02:43:50;;;;;;;6.20;1.08;;;13.30;99.90;;;;;;5046943;28;20050;-72
2021/08/02 02:46:17;;;;;;;4.60;1.23;;;13.20;99.90;;;;;;5047902;28;20041;-72
2021/08/02 02:48:45;;;;;;;8.30;1.70;;;13.20;99.90;;;;;;5047788;28;20033;-72
2021/08/02 02:51:12;;;;;;;5.57;1.42;;;13.20;99.90;;;;;;5047782;28;20032;-72
2021/08/02 02:53:40;;;;;;;3.45;1.27;;;13.20;99.90;;;;;;5047778;28;20052;-69
2021/08/02 02:56:08;;;;;;;2.47;1.13;;;13.20;99.90;;;;;;5047804;28;20036;-70
2021/08/02 02:58:39;;;;;;;8.20;1.27;;;13.20;99.90;;;;;;5047501;28;20029;-72
2021/08/02 03:01:06;;;;;;;3.28;1.13;;;13.20;99.90;;;;;;5047440;28;20076;-69
2021/08/02 03:03:38;;;;;;;3.92;1.55;;;13.20;99.90;;;;;;5047426;28;20034;-71
2021/08/02 03:06:07;;;;;;;10.20;1.23;;;13.20;99.90;;;;;;5047503;28;20132;-72
2021/08/02 03:08:35;;;;;;;3.42;1.35;;;13.20;99.90;;;;;;5046181;28;20493;-71
2021/08/02 03:11:03;;;;;;;3.47;0.93;;;13.20;99.90;;;;;;5047086;28;20032;-77
2021/08/02 03:13:29;;;;;;;1.83;1.20;;;13.20;99.90;;;;;;5046094;28;20087;-74
2021/08/02 03:15:55;;;;;;;2.75;1.38;;;13.20;99.90;;;;;;5045617;28;20057;-79
2021/08/02 03:18:20;;;;;;;2.63;1.20;;;13.20;99.90;;;;;;5047450;28;20034;-75
2021/08/02 03:20:46;;;;;;;1.60;1.10;;;13.20;99.90;;;;;;5047429;28;20029;-72
2021/08/02 03:23:28;;;;;;;5.07;1.45;;;13.20;99.90;;;;;;5045551;28;20537;-75
2021/08/02 03:26:39;;;;;;;3.80;1.83;;;13.10;99.90;;;;;;5047529;28;20041;-74
2021/08/02 03:29:11;;;;;;;2.20;0.98;;;13.10;99.90;;;;;;5038671;28;20068;-71
2021/08/02 03:32:04;;;;;;;2.58;1.02;;;13.10;99.90;;;;;;5047023;28;20040;-71
2021/08/02 03:34:33;;;;;;;11.25;1.30;;;13.10;99.90;;;;;;5046838;28;20051;-75
2021/08/02 03:37:00;;;;;;;3.38;1.48;;;13.10;99.90;;;;;;5045420;28;20021;-74
2021/08/02 03:39:27;;;;;;;5.38;1.65;;;13.10;99.90;;;;;;5046948;28;20025;-72
2021/08/02 03:41:55;;;;;;;3.85;1.08;;;13.10;99.90;;;;;;5046769;28;20486;-72
2021/08/02 03:44:22;;;;;;;2.33;0.93;;;13.10;99.90;;;;;;5045761;28;20026;-69
2021/08/02 03:46:48;;;;;;;3.80;0.93;;;13.10;99.90;;;;;;5046292;28;20033;-74
2021/08/02 03:49:14;;;;;;;1.58;0.93;;;13.00;99.90;;;;;;5046727;28;20056;-74
2021/08/02 03:51:53;;;;;;;5.10;1.50;;;13.10;99.90;;;;;;5046762;28;20029;-73
2021/08/02 03:54:19;;;;;;;2.35;1.00;;;13.00;99.90;;;;;;5046756;28;20025;-75
2021/08/02 03:56:52;;;;;;;6.90;1.20;;;13.00;99.90;;;;;;5046714;28;20104;-74
2021/08/02 03:59:26;;;;;;;2.78;1.27;;;13.00;99.90;;;;;;5045130;28;20060;-73
2021/08/02 04:01:52;;;;;;;12.20;1.45;;;13.00;99.90;;;;;;5045285;28;20025;-73
2021/08/02 04:04:18;;;;;;;2.15;1.42;;;13.00;99.90;;;;;;5046681;28;20025;-76
2021/08/02 04:06:44;;;;;;;7.70;1.88;;;12.90;99.90;;;;;;5044967;28;20101;-71
2021/08/02 04:09:11;;;;;;;4.05;1.73;;;12.90;99.90;;;;;;5045266;28;20048;-72
2021/08/02 04:11:39;;;;;;;1.98;1.20;;;12.90;99.90;;;;;;5046459;28;20056;-74
2021/08/02 04:14:06;;;;;;;4.43;1.65;;;12.90;99.90;;;;;;5046298;28;20025;-72
2021/08/02 04:16:32;;;;;;;2.92;1.40;;;12.90;99.90;;;;;;5045883;28;20172;-72
2021/08/02 04:18:57;;;;;;;10.25;2.28;;;12.90;99.90;;;;;;5045934;28;20032;-72
2021/08/02 04:21:23;;;;;;;1.83;1.30;;;13.00;99.90;;;;;;5044964;28;20038;-74
2021/08/02 04:23:56;;;;;;;5.03;1.20;;;12.90;99.90;;;;;;5046488;28;20022;-72
2021/08/02 04:26:22;;;;;;;1.98;1.20;;;13.00;99.90;;;;;;5046198;28;20037;-70
2021/08/02 04:28:55;;;;;;;2.95;1.30;;;13.00;99.90;;;;;;5046188;28;20034;-71
2021/08/02 04:31:21;;;;;;;4.05;1.52;;;13.00;99.90;;;;;;5046249;28;20040;-72
2021/08/02 04:33:47;;;;;;;5.45;1.60;;;13.10;99.90;;;;;;5044339;28;20025;-72
2021/08/02 04:36:13;;;;;;;4.60;1.83;;;13.00;99.90;;;;;;5045287;28;20067;-71
2021/08/02 04:38:38;;;;;;;3.10;1.50;;;13.00;99.90;;;;;;5044286;28;20029;-72
2021/08/02 04:41:04;;;;;;;3.17;1.17;;;13.10;99.90;;;;;;5044691;28;20032;-69
2021/08/02 04:43:29;;;;;;;3.03;1.17;;;13.10;99.90;;;;;;5045904;28;20035;-69
2021/08/02 04:45:59;;;;;;;12.80;1.98;;;13.10;99.90;;;;;;5045754;28;20106;-68
2021/08/02 04:48:25;;;;;;;5.97;1.90;;;13.20;99.90;;;;;;5045688;28;20037;-69
2021/08/02 04:50:51;;;;;;;2.40;1.30;;;13.20;99.90;;;;;;5043964;28;20026;-71
2021/08/02 04:53:17;;;;;;;3.65;1.30;;;13.20;99.90;;;;;;5045576;28;20104;-71
2021/08/02 04:55:42;;;;;;;13.73;1.55;;;13.20;99.90;;;;;;5045627;28;20037;-69
2021/08/02 04:58:08;;;;;;;8.23;1.70;;;13.30;99.90;;;;;;5045424;28;20029;-71
2021/08/02 05:00:34;;;;;;;2.80;1.50;;;13.30;99.90;;;;;;5045455;28;20060;-73
2021/08/02 05:03:01;;;;;;;4.22;1.60;;;13.30;99.90;;;;;;5045076;28;20039;-72
2021/08/02 05:05:27;;;;;;;2.90;1.23;;;13.30;99.90;;;;;;5045450;28;20029;-74
2021/08/02 05:07:53;;;;;;;1.90;0.95;;;13.40;99.90;;;;;;5044189;28;20172;-71
2021/08/02 05:10:19;;;;;;;3.35;1.23;;;13.50;99.90;;;;;;5044065;28;20034;-68
2021/08/02 05:12:44;;;;;;;3.03;1.60;;;13.50;99.90;;;;;;5045228;28;20030;-69
2021/08/02 05:15:12;;;;;;;7.60;1.55;;;13.50;99.90;;;;;;5044960;28;20053;-73
2021/08/02 05:17:39;;;;;;;4.40;1.55;;;13.50;99.90;;;;;;5045263;28;20033;-73
2021/08/02 05:20:06;;;;;;;2.50;1.30;;;13.50;99.90;;;;;;5043618;28;20029;-70
2021/08/02 05:22:32;;;;;;;7.13;1.30;;;13.60;99.90;;;;;;5044738;28;20030;-71
2021/08/02 05:24:58;;;;;;;5.20;1.95;;;13.60;99.90;;;;;;5043644;28;20030;-69
2021/08/02 05:27:23;;;;;;;8.98;1.02;;;13.60;99.90;;;;;;5043918;28;20040;-71
2021/08/02 05:29:49;;;;;;;3.55;1.65;;;13.60;99.90;;;;;;5045216;28;20021;-71
2021/08/02 05:32:15;;;;;;;1.67;1.15;;;13.60;99.90;;;;;;5045052;28;20037;-70
2021/08/02 05:34:41;;;;;;;1.80;1.23;;;13.70;99.90;;;;;;5043282;28;20029;-70
2021/08/02 05:37:10;;;;;;;2.22;1.13;;;13.70;99.90;;;;;;5044446;28;20029;-70
2021/08/02 05:39:37;;;;;;;4.90;1.52;;;13.80;99.90;;;;;;5044899;28;20025;-69
2021/08/02 05:42:04;;;;;;;13.90;1.48;;;13.70;99.90;;;;;;5045016;28;20100;-70
2021/08/02 05:44:29;;;;;;;12.13;1.35;;;13.70;99.90;;;;;;5043491;28;20025;-70
2021/08/02 05:47:00;;;;;;;1.42;0.95;;;13.80;99.90;;;;;;5044327;28;20095;-69
2021/08/02 05:49:26;;;;;;;3.25;1.50;;;13.80;99.90;;;;;;5043395;28;20030;-71
2021/08/02 05:51:54;;;;;;;5.35;1.52;;;13.80;99.90;;;;;;5045171;28;20040;-72
2021/08/02 05:54:19;;;;;;;3.08;1.27;;;13.80;99.90;;;;;;5044513;28;20063;-70
2021/08/02 05:56:45;;;;;;;4.38;1.70;;;13.90;99.90;;;;;;5043369;28;20029;-71
2021/08/02 05:59:10;;;;;;;4.82;1.30;;;13.90;99.90;;;;;;5044439;28;20037;-70
2021/08/02 06:01:36;;;;;;;2.17;1.40;;;14.00;99.90;;;;;;5042864;28;20017;-71
2021/08/02 06:04:02;;;;;;;1.35;1.05;;;14.00;99.90;;;;;;5043268;28;20029;-70
2021/08/02 06:06:28;;;;;;;4.57;1.65;;;14.00;99.90;;;;;;5044501;28;20037;-72
2021/08/02 06:08:53;;;;;;;3.53;1.33;;;14.10;99.90;;;;;;5044731;28;20040;-69
2021/08/02 06:11:19;;;;;;;1.73;1.00;;;14.10;99.90;;;;;;5044528;28;20030;-72
2021/08/02 06:13:47;;;;;;;1.92;1.10;;;14.10;99.90;;;;;;5044485;28;20030;-71
2021/08/02 06:16:14;;;;;;;7.55;0.88;;;14.10;99.90;;;;;;5047251;28;21044;-70
2021/08/02 06:18:40;;;;;;;11.38;1.75;;;14.10;99.90;;;;;;5058441;28;20477;-71
2021/08/02 06:21:05;;;;;;;6.50;1.73;;;14.10;99.90;;;;;;5064407;28;20037;-70
2021/08/02 06:23:31;;;;;;;7.57;1.45;;;14.20;99.90;;;;;;5059464;28;20032;-71
2021/08/02 06:25:57;;;;;;;1.80;1.38;;;14.20;99.90;;;;;;5044109;28;20044;-73
2021/08/02 06:28:22;;;;;;;5.07;1.23;;;14.30;99.90;;;;;;5062078;28;20485;-69
2021/08/02 06:30:48;;;;;;;6.75;1.17;;;14.40;99.90;;;;;;5046285;28;20037;-70
2021/08/02 06:33:14;;;;;;;2.33;0.90;;;14.50;99.90;;;;;;5061777;28;20028;-73
2021/08/02 06:35:39;;;;;;;7.30;1.05;;;14.60;99.90;;;;;;5044149;28;20026;-71
2021/08/02 06:38:05;;;;;;;1.13;0.80;;;14.70;99.90;;;;;;5047745;28;20059;-71
2021/08/02 06:40:31;;;;;;;7.35;1.17;;;14.70;99.90;;;;;;5057216;28;20095;-74
2021/08/02 06:43:00;;;;;;;2.55;0.93;;;14.80;99.90;;;;;;5044433;28;20034;-73
2021/08/02 06:45:25;;;;;;;1.75;0.82;;;14.80;99.90;;;;;;5063942;28;20110;-72
2021/08/02 06:47:54;;;;;;;1.77;0.73;;;14.80;99.90;;;;;;5063885;28;20037;-72
2021/08/02 06:50:21;;;;;;;1.08;0.73;;;15.00;99.90;;;;;;5064131;28;20036;-73
2021/08/02 06:52:46;;;;;;;2.42;1.25;;;15.00;99.90;;;;;;5064069;28;20086;-73
2021/08/02 06:55:12;;;;;;;8.98;1.35;;;15.10;99.90;;;;;;5062888;28;20013;-70
2021/08/02 06:57:37;;;;;;;8.90;1.42;;;15.20;99.90;;;;;;5062059;28;20515;-69
2021/08/02 07:00:04;;;;;;;5.57;1.33;;;15.40;99.90;;;;;;5066044;28;20062;-72
2021/08/02 07:02:29;;;;;;;6.03;1.85;;;15.50;99.90;;;;;;5067490;28;20481;-71
2021/08/02 07:04:55;;;;;;;2.60;0.93;;;15.50;99.90;;;;;;5066545;28;20033;-69
2021/08/02 07:07:21;;;;;;;5.03;0.93;;;15.60;99.90;;;;;;5067774;28;20057;-71
2021/08/02 07:09:46;;;;;;;1.23;0.65;;;15.60;99.90;;;;;;5067838;28;20031;-70
2021/08/02 07:12:12;;;;;;;2.47;0.82;;;15.60;99.90;;;;;;5067623;28;20021;-68
2021/08/02 07:14:37;;;;;;;5.15;0.68;;;15.70;99.90;;;;;;5067070;28;20033;-73
2021/08/02 07:17:03;;;;;;;5.75;1.42;;;15.70;99.90;;;;;;5066018;28;20135;-71
2021/08/02 07:19:29;;;;;;;4.50;0.85;;;15.80;99.90;;;;;;5067096;28;20028;-71
2021/08/02 07:21:55;;;;;;;1.85;0.60;;;15.80;99.90;;;;;;5067749;28;20028;-69
2021/08/02 07:24:22;;;;;;;2.08;0.93;;;15.70;99.90;;;;;;5067447;28;20025;-69
2021/08/02 07:26:47;;;;;;;1.40;0.80;;;15.80;99.90;;;;;;5067417;28;20041;-70
2021/08/02 07:29:13;;;;;;;2.58;0.80;;;15.80;99.90;;;;;;5063150;28;20031;-70
2021/08/02 07:31:38;;;;;;;1.42;0.98;;;15.80;99.90;;;;;;5055931;28;20038;-69
2021/08/02 07:34:04;;;;;;;1.75;0.70;;;15.90;99.90;;;;;;5054081;28;20029;-70
2021/08/02 07:36:30;;;;;;;0.80;0.52;;;16.00;99.90;;;;;;5047266;28;20030;-70
2021/08/02 07:38:56;;;;;;;2.40;1.13;;;16.00;99.90;;;;;;5046705;28;20037;-71
2021/08/02 07:41:23;;;;;;;4.75;0.65;;;16.00;99.90;;;;;;5064640;28;20029;-70
2021/08/02 07:43:49;;;;;;;0.70;0.50;;;16.10;99.90;;;;;;5065962;28;20054;-72
2021/08/02 07:46:14;;;;;;;2.35;0.80;;;16.10;99.90;;;;;;5061426;28;20033;-71
2021/08/02 07:48:43;;;;;;;1.77;0.85;;;16.20;99.90;;;;;;5046029;28;20026;-72
2021/08/02 07:51:09;;;;;;;0.98;0.47;;;16.20;99.90;;;;;;5046912;28;20025;-72
2021/08/02 07:53:34;;;;;;;6.05;0.68;;;16.20;99.90;;;;;;5057331;28;20059;-70
2021/08/02 07:56:00;;;;;;;3.30;0.75;;;16.20;99.90;;;;;;5056303;28;20037;-78
2021/08/02 07:58:25;;;;;;;2.33;0.95;;;16.20;99.90;;;;;;5061478;28;20040;-71
2021/08/02 08:00:51;;;;;;;1.80;0.60;;;16.20;99.90;;;;;;5066344;28;20025;-71
2021/08/02 08:03:19;;;;;;;0.75;0.57;;;16.20;99.90;;;;;;5063421;28;20062;-70
2021/08/02 08:05:45;;;;;;;4.63;0.85;;;16.30;99.90;;;;;;5054380;28;20114;-68
2021/08/02 08:08:11;;;;;;;3.75;0.47;;;16.40;99.90;;;;;;5054310;28;20032;-71
2021/08/02 08:10:37;;;;;;;1.15;0.45;;;16.40;99.90;;;;;;5050921;28;20066;-70
2021/08/02 08:13:02;;;;;;;1.83;0.80;;;16.60;99.90;;;;;;5058425;28;20030;-72
2021/08/02 08:15:28;;;;;;;1.73;0.38;;;16.70;99.90;;;;;;5046459;28;20053;-71
2021/08/02 08:17:54;;;;;;;4.28;0.68;;;16.70;99.90;;;;;;5046425;28;20530;-73
2021/08/02 08:20:23;;;;;;;2.80;1.02;;;16.80;99.90;;;;;;5046586;28;20029;-72
2021/08/02 08:22:50;;;;;;;3.35;0.98;;;16.80;99.90;;;;;;5046356;28;20022;-73
2021/08/02 08:25:16;;;;;;;5.45;0.85;;;16.70;99.90;;;;;;5044236;28;20026;-71
2021/08/02 08:27:42;;;;;;;4.55;0.55;;;16.80;99.90;;;;;;5044844;28;21084;-71
2021/08/02 08:30:10;;;;;;;3.78;1.20;;;16.80;99.90;;;;;;5044451;28;20117;-70
2021/08/02 08:32:35;;;;;;;1.52;0.73;;;16.80;99.90;;;;;;5045361;28;20044;-69
2021/08/02 08:35:02;;;;;;;2.83;0.93;;;16.90;99.90;;;;;;5045622;28;20108;-72
2021/08/02 08:37:28;;;;;;;3.08;0.82;;;16.90;99.90;;;;;;5045764;28;20075;-69
2021/08/02 08:39:54;;;;;;;6.38;1.48;;;16.90;99.90;;;;;;5045881;28;20030;-71
2021/08/02 08:42:20;;;;;;;5.82;0.75;;;16.90;99.90;;;;;;5045983;28;20056;-70
2021/08/02 08:44:45;;;;;;;4.80;0.80;;;16.90;99.90;;;;;;5045412;28;20057;-70
2021/08/02 08:47:11;;;;;;;1.33;0.63;;;16.90;99.90;;;;;;5045663;28;20114;-70
2021/08/02 08:49:38;;;;;;;3.53;0.52;;;16.90;99.90;;;;;;5045341;28;20032;-68
2021/08/02 08:52:04;;;;;;;1.63;0.80;;;16.90;99.90;;;;;;5043918;28;20026;-72
2021/08/02 08:54:31;;;;;;;3.45;0.70;;;17.00;99.90;;;;;;5044249;28;20096;-72
2021/08/02 08:56:57;;;;;;;1.25;0.73;;;17.10;99.90;;;;;;5045550;28;20018;-73
2021/08/02 08:59:23;;;;;;;5.32;0.93;;;17.10;99.90;;;;;;5051115;28;20039;-68
2021/08/02 09:02:01;;;;;;;9.10;1.30;;;17.20;99.90;;;;;;5049544;28;20496;-72
2021/08/02 09:04:29;;;;;;;1.13;0.60;;;17.30;99.90;;;;;;5061497;28;20017;-72
2021/08/02 09:06:58;;;;;;;0.85;0.70;;;17.40;99.90;;;;;;5045432;28;20037;-71
2021/08/02 09:09:32;;;;;;;2.83;0.50;;;17.60;99.90;;;;;;5044125;28;20093;-71
2021/08/02 09:12:07;;;;;;;4.35;0.95;;;17.80;99.90;;;;;;5045292;28;20033;-70
2021/08/02 09:14:33;;;;;;;4.25;1.13;;;17.80;99.90;;;;;;5043805;28;20037;-72
2021/08/02 09:17:00;;;;;;;1.55;0.98;;;17.90;99.90;;;;;;5045299;28;20133;-74
2021/08/02 09:19:40;;;;;;;7.88;0.73;;;17.90;99.90;;;;;;5043462;28;20084;-71
2021/08/02 09:22:06;;;;;;;3.30;0.63;;;18.10;99.90;;;;;;5045024;28;20102;-70
2021/08/02 09:24:33;;;;;;;4.65;1.27;;;18.10;99.90;;;;;;5060444;28;20025;-72
2021/08/02 09:26:59;;;;;;;2.03;0.47;;;18.20;99.90;;;;;;5044882;28;20056;-71
2021/08/02 09:29:33;;;;;;;0.85;0.52;;;18.30;99.90;;;;;;5045484;28;20382;-73
2021/08/02 09:32:00;;;;;;;2.72;0.93;;;18.20;99.90;;;;;;5045081;28;20030;-69
2021/08/02 09:34:27;;;;;;;8.93;1.30;;;18.30;99.90;;;;;;5043824;28;20057;-70
2021/08/02 09:36:58;;;;;;;2.20;0.68;;;18.20;99.90;;;;;;5045260;28;20059;-71
2021/08/02 09:39:30;;;;;;;2.88;0.55;;;18.20;99.90;;;;;;5045003;28;20057;-74
2021/08/02 09:42:06;;;;;;;0.70;0.47;;;18.20;99.90;;;;;;5043773;28;20034;-73
2021/08/02 09:44:32;;;;;;;1.15;0.60;;;18.30;99.90;;;;;;5044777;28;20033;-74
2021/08/02 09:47:04;;;;;;;1.20;0.65;;;18.40;99.90;;;;;;5044740;28;20101;-75
2021/08/02 09:49:45;;;;;;;1.45;0.80;;;18.50;99.90;;;;;;5045004;28;20109;-74
2021/08/02 09:52:10;;;;;;;0.38;0.22;;;18.60;99.90;;;;;;5045051;28;20025;-72
2021/08/02 09:54:43;;;;;;;0.60;0.45;;;18.50;99.90;;;;;;5044779;28;20048;-73
2021/08/02 09:57:08;;;;;;;0.80;0.55;;;18.40;99.90;;;;;;5044950;28;20030;-71
2021/08/02 09:59:42;;;;;;;1.05;0.52;;;18.40;99.90;;;;;;5044799;28;20025;-72
2021/08/02 10:02:08;;;;;;;1.33;0.45;;;18.30;99.90;;;;;;5044557;28;20022;-74
2021/08/02 10:04:34;;;;;;;7.35;0.73;;;18.30;99.90;;;;;;5044374;28;20026;-69
2021/08/02 10:07:00;;;;;;;3.03;0.47;;;18.40;99.90;;;;;;5044169;28;20044;-74
2021/08/02 10:09:30;;;;;;;2.80;1.17;;;18.40;99.90;;;;;;5044511;28;20040;-71
2021/08/02 10:11:57;;;;;;;0.85;0.30;;;18.60;99.90;;;;;;5044480;28;20029;-73
2021/08/02 10:14:31;;;;;;;4.70;0.77;;;18.80;99.90;;;;;;5044549;28;20030;-73
2021/08/02 10:17:05;;;;;;;2.85;1.02;;;18.90;99.90;;;;;;5044587;28;20054;-72
2021/08/02 10:19:44;;;;;;;5.32;0.70;;;19.00;99.90;;;;;;5044232;28;20030;-71
2021/08/02 10:22:10;;;;;;;0.88;0.57;;;19.00;99.90;;;;;;5044671;28;20039;-73
2021/08/02 10:24:52;;;;;;;1.05;0.50;;;19.00;99.90;;;;;;5054633;28;20036;-75
2021/08/02 10:27:28;;;;;;;0.90;0.45;;;19.10;99.90;;;;;;5061837;28;20041;-72
2021/08/02 10:29:55;;;;;;;0.65;0.38;;;19.00;99.90;;;;;;5044127;28;20026;-74
2021/08/02 10:32:27;;;;;;;0.73;0.50;;;19.10;99.90;;;;;;5062340;28;20496;-73
2021/08/02 10:34:56;;;;;;;12.00;0.60;;;19.10;99.90;;;;;;5059594;28;20029;-72
2021/08/02 10:37:36;;;;;;;1.00;0.65;;;19.20;99.90;;;;;;5048216;28;20037;-74
2021/08/02 10:40:20;;;;;;;3.78;1.10;;;19.20;99.90;;;;;;5048217;28;20025;-73
2021/08/02 10:42:50;;;;;;;4.40;0.57;;;19.10;99.90;;;;;;5053643;28;20029;-72
2021/08/02 10:45:29;;;;;;;1.95;0.95;;;19.00;99.90;;;;;;5068213;28;20036;-73
2021/08/02 10:47:54;;;;;;;0.88;0.50;;;18.90;99.90;;;;;;5067130;28;20037;-71
2021/08/02 10:50:26;;;;;;;0.47;0.30;;;18.80;99.90;;;;;;5063600;28;20093;-72
2021/08/02 10:52:54;;;;;;;2.45;0.80;;;18.80;99.90;;;;;;5066450;28;20025;-72
2021/08/02 10:55:20;;;;;;;3.83;0.75;;;18.90;99.90;;;;;;5055483;28;20026;-71
2021/08/02 10:57:57;;;;;;;4.22;0.98;;;19.00;99.90;;;;;;5047296;28;20032;-72
2021/08/02 11:00:23;;;;;;;0.47;0.45;;;19.20;99.90;;;;;;5060521;28;20081;-72
2021/08/02 11:02:54;;;;;;;4.22;0.65;;;19.20;99.90;;;;;;5066322;28;20018;-70
2021/08/02 11:05:20;;;;;;;0.63;0.28;;;19.30;99.90;;;;;;5068119;28;20017;-71
2021/08/02 11:07:49;;;;;;;0.20;0.20;;;19.40;99.90;;;;;;5067601;28;20041;-73
2021/08/02 11:10:16;;;;;;;1.20;0.45;;;19.50;99.90;;;;;;5064800;28;20576;-72
2021/08/02 11:12:46;;;;;;;1.65;0.57;;;19.60;99.90;;;;;;5046024;28;20482;-75
2021/08/02 11:15:12;;;;;;;5.05;0.50;;;19.60;99.90;;;;;;5047207;28;20077;-70
2021/08/02 11:17:48;;;;;;;1.52;0.45;;;19.60;99.90;;;;;;5047579;28;20033;-73
2021/08/02 11:20:14;;;;;;;1.13;0.47;;;19.40;99.90;;;;;;5047409;28;20044;-71
2021/08/02 11:22:58;;;;;;;1.15;0.32;;;19.20;99.90;;;;;;5047349;28;20041;-72
2021/08/02 11:25:31;;;;;;;1.55;0.57;;;19.10;99.90;;;;;;5055029;28;20059;-73
2021/08/02 11:27:59;;;;;;;3.70;0.63;;;19.10;99.90;;;;;;5047401;28;20061;-69
2021/08/02 11:30:26;;;;;;;0.57;0.30;;;19.30;99.90;;;;;;5054384;28;20039;-73
2021/08/02 11:32:52;;;;;;;0.40;0.30;;;19.30;99.90;;;;;;5047485;28;20032;-72
2021/08/02 11:35:18;;;;;;;1.85;0.73;;;19.30;99.90;;;;;;5045944;28;20037;-73
2021/08/02 11:37:54;;;;;;;0.82;0.52;;;19.30;99.90;;;;;;5047421;28;20030;-71
2021/08/02 11:40:19;;;;;;;2.42;0.40;;;19.20;99.90;;;;;;5049871;28;20041;-73
2021/08/02 11:42:47;;;;;;;0.47;0.43;;;19.00;99.90;;;;;;5065811;28;20155;-72
2021/08/02 11:45:17;;;;;;;6.90;0.52;;;18.70;99.90;;;;;;5066849;28;20029;-72
2021/08/02 11:47:45;;;;;;;2.80;0.68;;;18.40;99.90;;;;;;5066701;28;20045;-71
2021/08/02 11:50:12;;;;;;;0.85;0.55;;;18.10;99.90;;;;;;5065936;28;20032;-72
2021/08/02 11:52:38;;;;;;;0.20;0.20;;;17.90;99.90;;;;;;5046814;28;20078;-71
2021/08/02 11:55:07;;;;;;;2.75;0.65;;;17.60;99.90;;;;;;5046732;28;20033;-73
2021/08/02 11:57:33;;;;;;;0.70;0.38;;;17.30;99.90;;;;;;5046772;28;20065;-73
2021/08/02 12:00:07;;;;;;;2.40;0.52;;;17.10;99.90;;;;;;5045700;28;20032;-74
2021/08/02 12:02:41;;;;;;;1.02;0.50;;;16.90;99.90;;;;;;5045541;28;20021;-73
2021/08/02 12:05:25;;;;;;;0.63;0.20;;;16.80;99.90;;;;;;5046522;28;20021;-74
2021/08/02 12:07:52;;;;;;;0.95;0.63;;;16.70;99.90;;;;;;5046554;28;20037;-70
2021/08/02 12:10:20;;;;;;;0.30;0.30;;;16.60;99.90;;;;;;5046753;28;20521;-70
2021/08/02 12:13:00;;;;;;;0.35;0.20;;;16.60;99.90;;;;;;5046654;28;20104;-71
2021/08/02 12:15:28;;;;;;;0.82;0.43;;;16.60;99.90;;;;;;5045096;28;20456;-71
2021/08/02 12:17:56;;;;;;;0.22;0.20;;;16.80;99.90;;;;;;5061163;28;20028;-72
2021/08/02 12:20:48;;;;;;;0.75;0.40;;;16.80;99.90;;;;;;5066425;28;20123;-72
2021/08/02 12:23:22;;;;;;;2.20;0.68;;;17.00;99.90;;;;;;5066254;28;20087;-71
2021/08/02 12:25:48;;;;;;;0.40;0.25;;;17.10;99.90;;;;;;5065301;28;20082;-70
2021/08/02 12:28:15;;;;;;;0.90;0.38;;;17.10;99.90;;;;;;5066166;28;20413;-69
2021/08/02 12:30:43;;;;;;;4.40;0.30;;;17.40;99.90;;;;;;5066491;28;20085;-73
2021/08/02 12:33:11;;;;;;;5.05;0.77;;;17.50;99.90;;;;;;5065923;28;20109;-73
2021/08/02 12:35:37;;;;;;;1.50;0.60;;;17.50;99.90;;;;;;5065965;28;20382;-73
2021/08/02 12:38:04;;;;;;;5.32;1.23;;;17.70;99.90;;;;;;5065966;28;20025;-72
2021/08/02 12:40:31;;;;;;;1.17;0.50;;;17.80;99.90;;;;;;5065918;28;20028;-75
2021/08/02 12:42:57;;;;;;;1.02;0.57;;;18.00;99.90;;;;;;5061450;28;20049;-72
2021/08/02 12:45:23;;;;;;;0.73;0.40;;;18.20;99.90;;;;;;5046251;28;20497;-74
2021/08/02 12:47:50;;;;;;;1.92;0.85;;;18.30;99.90;;;;;;5045727;28;20041;-74
2021/08/02 12:50:18;;;;;;;2.05;0.65;;;18.40;99.90;;;;;;5046380;28;20029;-72
2021/08/02 12:52:51;;;;;;;1.25;0.52;;;18.50;99.90;;;;;;5045502;28;20033;-73